sensor_id;sensor_type;location;lat;lon;timestamp;P1;durP1;ratioP1;P2;durP2;ratioP2
11319;SDS011;5715;48.234;14.320;2023-11-21T00:02:18;3.00;;;2.80;;
11319;SDS011;5715;48.234;14.320;2023-11-21T00:05:07;2.80;;;2.50;;
11319;SDS011;5715;48.234;14.320;2023-11-21T00:08:01;1.87;;;1.77;;
11319;SDS011;5715;48.234;14.320;2023-11-21T00:10:48;1.80;;;1.70;;
11319;SDS011;5715;48.234;14.320;2023-11-21T00:13:36;2.20;;;2.10;;
11319;SDS011;5715;48.234;14.320;2023-11-21T00:16:24;3.70;;;1.97;;
11319;SDS011;5715;48.234;14.320;2023-11-21T00:19:12;1.60;;;1.50;;
11319;SDS011;5715;48.234;14.320;2023-11-21T00:22:00;2.10;;;2.00;;
11319;SDS011;5715;48.234;14.320;2023-11-21T00:24:47;2.30;;;2.10;;
11319;SDS011;5715;48.234;14.320;2023-11-21T00:27:35;2.23;;;2.13;;
11319;SDS011;5715;48.234;14.320;2023-11-21T00:30:23;2.30;;;2.10;;
11319;SDS011;5715;48.234;14.320;2023-11-21T00:33:11;2.07;;;1.97;;
11319;SDS011;5715;48.234;14.320;2023-11-21T00:35:59;2.37;;;2.17;;
11319;SDS011;5715;48.234;14.320;2023-11-21T00:38:47;2.10;;;2.00;;
11319;SDS011;5715;48.234;14.320;2023-11-21T00:41:35;4.30;;;2.67;;
11319;SDS011;5715;48.234;14.320;2023-11-21T00:44:23;1.93;;;1.83;;
11319;SDS011;5715;48.234;14.320;2023-11-21T00:47:10;1.80;;;1.70;;
11319;SDS011;5715;48.234;14.320;2023-11-21T00:49:59;2.20;;;2.10;;
11319;SDS011;5715;48.234;14.320;2023-11-21T00:52:46;2.97;;;2.70;;
11319;SDS011;5715;48.234;14.320;2023-11-21T00:55:34;6.27;;;1.93;;
11319;SDS011;5715;48.234;14.320;2023-11-21T00:58:21;1.73;;;1.63;;
11319;SDS011;5715;48.234;14.320;2023-11-21T01:01:10;2.73;;;2.50;;
11319;SDS011;5715;48.234;14.320;2023-11-21T01:03:58;2.43;;;2.20;;
11319;SDS011;5715;48.234;14.320;2023-11-21T01:06:46;1.67;;;1.57;;
11319;SDS011;5715;48.234;14.320;2023-11-21T01:09:33;2.87;;;2.13;;
11319;SDS011;5715;48.234;14.320;2023-11-21T01:12:21;3.60;;;2.00;;
11319;SDS011;5715;48.234;14.320;2023-11-21T01:15:12;3.97;;;2.60;;
11319;SDS011;5715;48.234;14.320;2023-11-21T01:17:59;3.13;;;2.80;;
11319;SDS011;5715;48.234;14.320;2023-11-21T01:20:47;3.97;;;2.73;;
11319;SDS011;5715;48.234;14.320;2023-11-21T01:23:34;2.03;;;1.93;;
11319;SDS011;5715;48.234;14.320;2023-11-21T01:26:22;2.83;;;2.60;;
11319;SDS011;5715;48.234;14.320;2023-11-21T01:29:10;2.70;;;1.90;;
11319;SDS011;5715;48.234;14.320;2023-11-21T01:31:57;2.47;;;2.27;;
11319;SDS011;5715;48.234;14.320;2023-11-21T01:34:45;2.27;;;1.47;;
11319;SDS011;5715;48.234;14.320;2023-11-21T01:37:32;2.00;;;1.90;;
11319;SDS011;5715;48.234;14.320;2023-11-21T01:40:20;3.00;;;2.50;;
11319;SDS011;5715;48.234;14.320;2023-11-21T01:43:08;4.10;;;2.90;;
11319;SDS011;5715;48.234;14.320;2023-11-21T01:45:56;3.43;;;3.13;;
11319;SDS011;5715;48.234;14.320;2023-11-21T01:48:44;2.70;;;2.37;;
11319;SDS011;5715;48.234;14.320;2023-11-21T01:51:31;6.13;;;2.23;;
11319;SDS011;5715;48.234;14.320;2023-11-21T01:54:20;2.47;;;2.30;;
11319;SDS011;5715;48.234;14.320;2023-11-21T01:57:09;2.77;;;2.53;;
11319;SDS011;5715;48.234;14.320;2023-11-21T01:59:56;3.03;;;2.73;;
11319;SDS011;5715;48.234;14.320;2023-11-21T02:02:57;3.43;;;2.20;;
11319;SDS011;5715;48.234;14.320;2023-11-21T02:05:46;1.90;;;1.80;;
11319;SDS011;5715;48.234;14.320;2023-11-21T02:08:34;2.50;;;2.30;;
11319;SDS011;5715;48.234;14.320;2023-11-21T02:11:24;3.57;;;2.93;;
11319;SDS011;5715;48.234;14.320;2023-11-21T02:14:13;2.97;;;2.60;;
11319;SDS011;5715;48.234;14.320;2023-11-21T02:17:01;2.37;;;2.17;;
11319;SDS011;5715;48.234;14.320;2023-11-21T02:19:50;9.43;;;2.83;;
11319;SDS011;5715;48.234;14.320;2023-11-21T02:22:38;6.97;;;2.57;;
11319;SDS011;5715;48.234;14.320;2023-11-21T02:25:29;1.87;;;1.60;;
11319;SDS011;5715;48.234;14.320;2023-11-21T02:28:20;4.33;;;3.87;;
11319;SDS011;5715;48.234;14.320;2023-11-21T02:31:13;1.90;;;1.80;;
11319;SDS011;5715;48.234;14.320;2023-11-21T02:34:00;4.00;;;2.50;;
11319;SDS011;5715;48.234;14.320;2023-11-21T02:36:48;3.13;;;2.47;;
11319;SDS011;5715;48.234;14.320;2023-11-21T02:39:38;3.57;;;2.43;;
11319;SDS011;5715;48.234;14.320;2023-11-21T02:42:26;1.60;;;1.50;;
11319;SDS011;5715;48.234;14.320;2023-11-21T02:45:14;2.20;;;2.00;;
11319;SDS011;5715;48.234;14.320;2023-11-21T02:48:05;2.87;;;2.63;;
11319;SDS011;5715;48.234;14.320;2023-11-21T02:50:53;2.60;;;2.40;;
11319;SDS011;5715;48.234;14.320;2023-11-21T02:53:40;2.50;;;2.27;;
11319;SDS011;5715;48.234;14.320;2023-11-21T02:56:28;2.57;;;2.20;;
11319;SDS011;5715;48.234;14.320;2023-11-21T02:59:16;5.73;;;3.43;;
11319;SDS011;5715;48.234;14.320;2023-11-21T03:02:03;2.57;;;2.37;;
11319;SDS011;5715;48.234;14.320;2023-11-21T03:04:55;5.87;;;2.27;;
11319;SDS011;5715;48.234;14.320;2023-11-21T03:07:42;7.83;;;2.73;;
11319;SDS011;5715;48.234;14.320;2023-11-21T03:10:30;4.30;;;3.40;;
11319;SDS011;5715;48.234;14.320;2023-11-21T03:13:17;4.20;;;2.63;;
11319;SDS011;5715;48.234;14.320;2023-11-21T03:16:05;2.87;;;2.67;;
11319;SDS011;5715;48.234;14.320;2023-11-21T03:18:55;3.07;;;2.87;;
11319;SDS011;5715;48.234;14.320;2023-11-21T03:21:42;3.50;;;3.20;;
11319;SDS011;5715;48.234;14.320;2023-11-21T03:24:30;3.47;;;2.33;;
11319;SDS011;5715;48.234;14.320;2023-11-21T03:27:18;6.70;;;2.97;;
11319;SDS011;5715;48.234;14.320;2023-11-21T03:30:07;3.37;;;3.03;;
11319;SDS011;5715;48.234;14.320;2023-11-21T03:32:56;3.70;;;3.40;;
11319;SDS011;5715;48.234;14.320;2023-11-21T03:35:44;2.73;;;2.53;;
11319;SDS011;5715;48.234;14.320;2023-11-21T03:38:31;5.63;;;3.63;;
11319;SDS011;5715;48.234;14.320;2023-11-21T03:41:19;4.37;;;3.80;;
11319;SDS011;5715;48.234;14.320;2023-11-21T03:44:06;2.47;;;2.33;;
11319;SDS011;5715;48.234;14.320;2023-11-21T03:46:54;3.77;;;3.47;;
11319;SDS011;5715;48.234;14.320;2023-11-21T03:49:41;3.60;;;2.20;;
11319;SDS011;5715;48.234;14.320;2023-11-21T03:52:29;7.00;;;3.13;;
11319;SDS011;5715;48.234;14.320;2023-11-21T03:55:17;6.50;;;3.60;;
11319;SDS011;5715;48.234;14.320;2023-11-21T03:58:04;8.80;;;4.73;;
11319;SDS011;5715;48.234;14.320;2023-11-21T04:00:52;4.97;;;3.47;;
11319;SDS011;5715;48.234;14.320;2023-11-21T04:03:40;6.07;;;3.47;;
11319;SDS011;5715;48.234;14.320;2023-11-21T04:06:27;3.27;;;2.97;;
11319;SDS011;5715;48.234;14.320;2023-11-21T04:09:15;2.80;;;2.60;;
11319;SDS011;5715;48.234;14.320;2023-11-21T04:12:03;5.10;;;2.90;;
11319;SDS011;5715;48.234;14.320;2023-11-21T04:14:50;3.97;;;2.77;;
11319;SDS011;5715;48.234;14.320;2023-11-21T04:17:41;5.70;;;2.90;;
11319;SDS011;5715;48.234;14.320;2023-11-21T04:20:29;15.50;;;2.80;;
11319;SDS011;5715;48.234;14.320;2023-11-21T04:23:17;2.73;;;2.53;;
11319;SDS011;5715;48.234;14.320;2023-11-21T04:26:04;2.90;;;2.70;;
11319;SDS011;5715;48.234;14.320;2023-11-21T04:28:53;8.60;;;3.30;;
11319;SDS011;5715;48.234;14.320;2023-11-21T04:31:40;2.93;;;2.70;;
11319;SDS011;5715;48.234;14.320;2023-11-21T04:34:28;2.90;;;2.23;;
11319;SDS011;5715;48.234;14.320;2023-11-21T04:37:18;14.17;;;3.63;;
11319;SDS011;5715;48.234;14.320;2023-11-21T04:40:06;2.73;;;2.57;;
11319;SDS011;5715;48.234;14.320;2023-11-21T04:42:55;3.63;;;3.33;;
11319;SDS011;5715;48.234;14.320;2023-11-21T04:45:43;3.27;;;2.97;;
11319;SDS011;5715;48.234;14.320;2023-11-21T04:48:31;4.20;;;2.97;;
11319;SDS011;5715;48.234;14.320;2023-11-21T04:51:19;3.57;;;3.27;;
11319;SDS011;5715;48.234;14.320;2023-11-21T04:54:06;3.47;;;3.03;;
11319;SDS011;5715;48.234;14.320;2023-11-21T04:56:54;5.80;;;2.27;;
11319;SDS011;5715;48.234;14.320;2023-11-21T04:59:41;2.63;;;2.37;;
11319;SDS011;5715;48.234;14.320;2023-11-21T05:02:30;2.17;;;1.97;;
11319;SDS011;5715;48.234;14.320;2023-11-21T05:05:22;4.23;;;2.57;;
11319;SDS011;5715;48.234;14.320;2023-11-21T05:08:09;12.97;;;3.07;;
11319;SDS011;5715;48.234;14.320;2023-11-21T05:10:57;2.90;;;2.17;;
11319;SDS011;5715;48.234;14.320;2023-11-21T05:13:44;3.03;;;2.40;;
11319;SDS011;5715;48.234;14.320;2023-11-21T05:16:32;2.90;;;2.70;;
11319;SDS011;5715;48.234;14.320;2023-11-21T05:19:20;3.20;;;2.40;;
11319;SDS011;5715;48.234;14.320;2023-11-21T05:22:08;3.23;;;2.80;;
11319;SDS011;5715;48.234;14.320;2023-11-21T05:24:55;5.90;;;3.07;;
11319;SDS011;5715;48.234;14.320;2023-11-21T05:27:43;3.20;;;2.90;;
11319;SDS011;5715;48.234;14.320;2023-11-21T05:30:32;2.70;;;2.47;;
11319;SDS011;5715;48.234;14.320;2023-11-21T05:33:20;2.57;;;2.37;;
11319;SDS011;5715;48.234;14.320;2023-11-21T05:36:08;2.30;;;2.20;;
11319;SDS011;5715;48.234;14.320;2023-11-21T05:38:56;3.20;;;2.90;;
11319;SDS011;5715;48.234;14.320;2023-11-21T05:41:44;2.33;;;2.13;;
11319;SDS011;5715;48.234;14.320;2023-11-21T05:44:36;3.00;;;2.03;;
11319;SDS011;5715;48.234;14.320;2023-11-21T05:47:29;2.77;;;2.57;;
11319;SDS011;5715;48.234;14.320;2023-11-21T05:50:17;2.03;;;1.93;;
11319;SDS011;5715;48.234;14.320;2023-11-21T05:53:05;3.60;;;2.30;;
11319;SDS011;5715;48.234;14.320;2023-11-21T05:55:52;3.63;;;2.40;;
11319;SDS011;5715;48.234;14.320;2023-11-21T05:58:40;2.03;;;1.93;;
11319;SDS011;5715;48.234;14.320;2023-11-21T06:01:28;3.37;;;2.10;;
11319;SDS011;5715;48.234;14.320;2023-11-21T06:04:15;2.53;;;2.33;;
11319;SDS011;5715;48.234;14.320;2023-11-21T06:07:04;1.80;;;1.70;;
11319;SDS011;5715;48.234;14.320;2023-11-21T06:09:51;2.27;;;2.17;;
11319;SDS011;5715;48.234;14.320;2023-11-21T06:12:39;3.83;;;2.30;;
11319;SDS011;5715;48.234;14.320;2023-11-21T06:15:30;8.53;;;2.40;;
11319;SDS011;5715;48.234;14.320;2023-11-21T06:18:17;2.67;;;2.47;;
11319;SDS011;5715;48.234;14.320;2023-11-21T06:21:11;3.90;;;2.93;;
11319;SDS011;5715;48.234;14.320;2023-11-21T06:24:00;18.63;;;2.63;;
11319;SDS011;5715;48.234;14.320;2023-11-21T06:26:48;1.90;;;1.80;;
11319;SDS011;5715;48.234;14.320;2023-11-21T06:29:35;3.40;;;2.30;;
11319;SDS011;5715;48.234;14.320;2023-11-21T06:32:23;4.00;;;2.23;;
11319;SDS011;5715;48.234;14.320;2023-11-21T06:35:11;3.60;;;2.40;;
11319;SDS011;5715;48.234;14.320;2023-11-21T06:38:00;7.63;;;2.50;;
11319;SDS011;5715;48.234;14.320;2023-11-21T06:40:47;3.40;;;2.63;;
11319;SDS011;5715;48.234;14.320;2023-11-21T06:43:35;4.07;;;3.40;;
11319;SDS011;5715;48.234;14.320;2023-11-21T06:46:22;2.80;;;2.53;;
11319;SDS011;5715;48.234;14.320;2023-11-21T06:49:10;4.00;;;2.47;;
11319;SDS011;5715;48.234;14.320;2023-11-21T06:51:58;3.83;;;2.57;;
11319;SDS011;5715;48.234;14.320;2023-11-21T06:54:46;3.10;;;2.80;;
11319;SDS011;5715;48.234;14.320;2023-11-21T06:57:37;3.13;;;2.37;;
11319;SDS011;5715;48.234;14.320;2023-11-21T07:00:25;7.60;;;2.73;;
11319;SDS011;5715;48.234;14.320;2023-11-21T07:03:16;7.23;;;3.00;;
11319;SDS011;5715;48.234;14.320;2023-11-21T07:06:06;11.20;;;3.83;;
11319;SDS011;5715;48.234;14.320;2023-11-21T07:08:54;3.63;;;2.80;;
11319;SDS011;5715;48.234;14.320;2023-11-21T07:11:42;3.03;;;2.77;;
11319;SDS011;5715;48.234;14.320;2023-11-21T07:14:29;5.90;;;2.47;;
11319;SDS011;5715;48.234;14.320;2023-11-21T07:17:17;2.90;;;2.63;;
11319;SDS011;5715;48.234;14.320;2023-11-21T07:20:05;2.90;;;2.60;;
11319;SDS011;5715;48.234;14.320;2023-11-21T07:22:53;4.30;;;3.37;;
11319;SDS011;5715;48.234;14.320;2023-11-21T07:25:41;9.77;;;3.37;;
11319;SDS011;5715;48.234;14.320;2023-11-21T07:28:30;3.40;;;2.50;;
11319;SDS011;5715;48.234;14.320;2023-11-21T07:31:17;18.73;;;3.50;;
11319;SDS011;5715;48.234;14.320;2023-11-21T07:34:09;9.63;;;1.83;;
11319;SDS011;5715;48.234;14.320;2023-11-21T07:36:57;3.00;;;2.40;;
11319;SDS011;5715;48.234;14.320;2023-11-21T07:39:44;3.57;;;2.53;;
11319;SDS011;5715;48.234;14.320;2023-11-21T07:42:34;2.20;;;2.00;;
11319;SDS011;5715;48.234;14.320;2023-11-21T07:45:21;2.57;;;1.73;;
11319;SDS011;5715;48.234;14.320;2023-11-21T07:48:09;2.67;;;2.47;;
11319;SDS011;5715;48.234;14.320;2023-11-21T07:50:57;3.73;;;3.10;;
11319;SDS011;5715;48.234;14.320;2023-11-21T07:53:45;8.87;;;2.87;;
11319;SDS011;5715;48.234;14.320;2023-11-21T07:56:33;4.07;;;3.20;;
11319;SDS011;5715;48.234;14.320;2023-11-21T07:59:20;2.70;;;2.50;;
11319;SDS011;5715;48.234;14.320;2023-11-21T08:02:08;2.20;;;2.10;;
11319;SDS011;5715;48.234;14.320;2023-11-21T08:04:56;4.40;;;3.53;;
11319;SDS011;5715;48.234;14.320;2023-11-21T08:07:44;3.83;;;3.03;;
11319;SDS011;5715;48.234;14.320;2023-11-21T08:10:31;8.83;;;2.47;;
11319;SDS011;5715;48.234;14.320;2023-11-21T08:13:19;2.20;;;2.00;;
11319;SDS011;5715;48.234;14.320;2023-11-21T08:16:07;5.53;;;2.47;;
11319;SDS011;5715;48.234;14.320;2023-11-21T08:18:55;5.27;;;3.13;;
11319;SDS011;5715;48.234;14.320;2023-11-21T08:21:43;5.10;;;2.27;;
11319;SDS011;5715;48.234;14.320;2023-11-21T08:24:32;6.33;;;3.33;;
11319;SDS011;5715;48.234;14.320;2023-11-21T08:27:20;4.70;;;2.70;;
11319;SDS011;5715;48.234;14.320;2023-11-21T08:30:07;3.03;;;2.30;;
11319;SDS011;5715;48.234;14.320;2023-11-21T08:32:55;7.37;;;2.70;;
11319;SDS011;5715;48.234;14.320;2023-11-21T08:35:45;2.77;;;2.23;;
11319;SDS011;5715;48.234;14.320;2023-11-21T08:38:32;6.07;;;3.10;;
11319;SDS011;5715;48.234;14.320;2023-11-21T08:41:24;10.17;;;3.30;;
11319;SDS011;5715;48.234;14.320;2023-11-21T08:44:11;2.80;;;2.50;;
11319;SDS011;5715;48.234;14.320;2023-11-21T08:46:59;4.13;;;3.03;;
11319;SDS011;5715;48.234;14.320;2023-11-21T08:49:46;3.10;;;2.80;;
11319;SDS011;5715;48.234;14.320;2023-11-21T08:52:34;2.63;;;2.43;;
11319;SDS011;5715;48.234;14.320;2023-11-21T08:55:23;6.70;;;2.70;;
11319;SDS011;5715;48.234;14.320;2023-11-21T08:58:11;13.73;;;3.57;;
11319;SDS011;5715;48.234;14.320;2023-11-21T09:00:59;4.33;;;2.87;;
11319;SDS011;5715;48.234;14.320;2023-11-21T09:03:47;2.87;;;2.67;;
11319;SDS011;5715;48.234;14.320;2023-11-21T09:06:34;3.00;;;2.30;;
11319;SDS011;5715;48.234;14.320;2023-11-21T09:09:22;2.20;;;2.10;;
11319;SDS011;5715;48.234;14.320;2023-11-21T09:12:11;3.27;;;2.83;;
11319;SDS011;5715;48.234;14.320;2023-11-21T09:14:59;4.73;;;3.07;;
11319;SDS011;5715;48.234;14.320;2023-11-21T09:17:47;3.83;;;2.93;;
11319;SDS011;5715;48.234;14.320;2023-11-21T09:20:35;2.27;;;2.07;;
11319;SDS011;5715;48.234;14.320;2023-11-21T09:23:22;6.80;;;2.90;;
11319;SDS011;5715;48.234;14.320;2023-11-21T09:26:11;3.70;;;2.83;;
11319;SDS011;5715;48.234;14.320;2023-11-21T09:28:59;7.20;;;2.33;;
11319;SDS011;5715;48.234;14.320;2023-11-21T09:31:48;2.40;;;2.20;;
11319;SDS011;5715;48.234;14.320;2023-11-21T09:34:41;3.60;;;3.30;;
11319;SDS011;5715;48.234;14.320;2023-11-21T09:37:29;4.80;;;2.53;;
11319;SDS011;5715;48.234;14.320;2023-11-21T09:40:19;4.73;;;2.27;;
11319;SDS011;5715;48.234;14.320;2023-11-21T09:43:13;3.13;;;2.20;;
11319;SDS011;5715;48.234;14.320;2023-11-21T09:46:05;2.90;;;2.20;;
11319;SDS011;5715;48.234;14.320;2023-11-21T09:48:59;6.70;;;2.77;;
11319;SDS011;5715;48.234;14.320;2023-11-21T09:51:53;2.00;;;1.87;;
11319;SDS011;5715;48.234;14.320;2023-11-21T09:54:45;7.57;;;2.43;;
11319;SDS011;5715;48.234;14.320;2023-11-21T09:57:34;2.23;;;1.97;;
11319;SDS011;5715;48.234;14.320;2023-11-21T10:00:22;2.40;;;2.20;;
11319;SDS011;5715;48.234;14.320;2023-11-21T10:03:10;2.73;;;2.43;;
11319;SDS011;5715;48.234;14.320;2023-11-21T10:05:59;9.10;;;2.27;;
11319;SDS011;5715;48.234;14.320;2023-11-21T10:08:49;2.07;;;1.87;;
11319;SDS011;5715;48.234;14.320;2023-11-21T10:11:41;7.60;;;1.30;;
11319;SDS011;5715;48.234;14.320;2023-11-21T10:14:32;1.30;;;1.20;;
11319;SDS011;5715;48.234;14.320;2023-11-21T10:17:24;1.57;;;1.47;;
11319;SDS011;5715;48.234;14.320;2023-11-21T10:20:22;2.83;;;1.90;;
11319;SDS011;5715;48.234;14.320;2023-11-21T10:23:12;4.07;;;1.40;;
11319;SDS011;5715;48.234;14.320;2023-11-21T10:26:02;1.73;;;1.53;;
11319;SDS011;5715;48.234;14.320;2023-11-21T10:29:05;2.63;;;1.27;;
11319;SDS011;5715;48.234;14.320;2023-11-21T10:31:52;1.63;;;1.53;;
11319;SDS011;5715;48.234;14.320;2023-11-21T10:34:55;3.00;;;1.23;;
11319;SDS011;5715;48.234;14.320;2023-11-21T10:37:43;6.93;;;1.87;;
11319;SDS011;5715;48.234;14.320;2023-11-21T10:40:31;3.73;;;1.67;;
11319;SDS011;5715;48.234;14.320;2023-11-21T10:43:18;2.27;;;0.90;;
11319;SDS011;5715;48.234;14.320;2023-11-21T10:46:07;8.97;;;1.37;;
11319;SDS011;5715;48.234;14.320;2023-11-21T10:48:55;6.40;;;1.67;;
11319;SDS011;5715;48.234;14.320;2023-11-21T10:51:44;0.90;;;0.90;;
11319;SDS011;5715;48.234;14.320;2023-11-21T10:54:31;2.03;;;1.80;;
11319;SDS011;5715;48.234;14.320;2023-11-21T10:57:19;4.90;;;1.60;;
11319;SDS011;5715;48.234;14.320;2023-11-21T11:00:10;1.90;;;1.50;;
11319;SDS011;5715;48.234;14.320;2023-11-21T11:03:00;2.43;;;1.53;;
11319;SDS011;5715;48.234;14.320;2023-11-21T11:05:50;4.57;;;1.50;;
11319;SDS011;5715;48.234;14.320;2023-11-21T11:08:41;2.00;;;1.80;;
11319;SDS011;5715;48.234;14.320;2023-11-21T11:11:30;1.93;;;1.47;;
11319;SDS011;5715;48.234;14.320;2023-11-21T11:14:17;1.90;;;1.70;;
11319;SDS011;5715;48.234;14.320;2023-11-21T11:17:07;2.53;;;1.70;;
11319;SDS011;5715;48.234;14.320;2023-11-21T11:19:57;1.97;;;1.60;;
11319;SDS011;5715;48.234;14.320;2023-11-21T11:22:50;2.80;;;2.07;;
11319;SDS011;5715;48.234;14.320;2023-11-21T11:26:39;1.93;;;1.27;;
11319;SDS011;5715;48.234;14.320;2023-11-21T11:29:35;2.73;;;1.70;;
11319;SDS011;5715;48.234;14.320;2023-11-21T11:36:19;1.20;;;1.10;;
11319;SDS011;5715;48.234;14.320;2023-11-21T11:42:25;2.73;;;2.23;;
11319;SDS011;5715;48.234;14.320;2023-11-21T11:45:17;1.60;;;1.50;;
11319;SDS011;5715;48.234;14.320;2023-11-21T11:48:10;2.30;;;1.40;;
11319;SDS011;5715;48.234;14.320;2023-11-21T11:51:11;6.43;;;2.13;;
11319;SDS011;5715;48.234;14.320;2023-11-21T11:54:08;2.03;;;1.83;;
11319;SDS011;5715;48.234;14.320;2023-11-21T11:56:55;2.07;;;1.60;;
11319;SDS011;5715;48.234;14.320;2023-11-21T12:03:24;3.97;;;1.97;;
11319;SDS011;5715;48.234;14.320;2023-11-21T12:06:11;1.57;;;1.47;;
11319;SDS011;5715;48.234;14.320;2023-11-21T12:09:01;1.50;;;1.40;;
11319;SDS011;5715;48.234;14.320;2023-11-21T12:11:52;1.00;;;1.00;;
11319;SDS011;5715;48.234;14.320;2023-11-21T12:14:43;1.70;;;1.60;;
11319;SDS011;5715;48.234;14.320;2023-11-21T12:17:32;8.23;;;1.50;;
11319;SDS011;5715;48.234;14.320;2023-11-21T12:20:22;1.30;;;1.20;;
11319;SDS011;5715;48.234;14.320;2023-11-21T12:23:11;2.03;;;1.53;;
11319;SDS011;5715;48.234;14.320;2023-11-21T12:26:02;2.50;;;1.63;;
11319;SDS011;5715;48.234;14.320;2023-11-21T12:28:53;2.47;;;2.03;;
11319;SDS011;5715;48.234;14.320;2023-11-21T12:31:42;2.20;;;1.87;;
11319;SDS011;5715;48.234;14.320;2023-11-21T12:34:32;2.40;;;1.53;;
11319;SDS011;5715;48.234;14.320;2023-11-21T12:37:20;3.10;;;1.77;;
11319;SDS011;5715;48.234;14.320;2023-11-21T12:40:09;3.03;;;1.37;;
11319;SDS011;5715;48.234;14.320;2023-11-21T12:42:59;5.37;;;1.23;;
11319;SDS011;5715;48.234;14.320;2023-11-21T12:46:04;1.53;;;1.43;;
11319;SDS011;5715;48.234;14.320;2023-11-21T12:48:56;4.03;;;1.53;;
11319;SDS011;5715;48.234;14.320;2023-11-21T12:51:47;2.33;;;1.70;;
11319;SDS011;5715;48.234;14.320;2023-11-21T12:54:35;1.90;;;1.67;;
11319;SDS011;5715;48.234;14.320;2023-11-21T12:57:25;1.93;;;1.70;;
11319;SDS011;5715;48.234;14.320;2023-11-21T13:00:15;1.70;;;1.60;;
11319;SDS011;5715;48.234;14.320;2023-11-21T13:03:14;1.17;;;1.10;;
11319;SDS011;5715;48.234;14.320;2023-11-21T13:06:06;2.03;;;1.10;;
11319;SDS011;5715;48.234;14.320;2023-11-21T13:08:54;1.60;;;1.50;;
11319;SDS011;5715;48.234;14.320;2023-11-21T13:11:44;2.33;;;1.67;;
11319;SDS011;5715;48.234;14.320;2023-11-21T13:14:32;1.50;;;1.40;;
11319;SDS011;5715;48.234;14.320;2023-11-21T13:17:21;1.30;;;1.03;;
11319;SDS011;5715;48.234;14.320;2023-11-21T13:20:11;3.53;;;1.40;;
11319;SDS011;5715;48.234;14.320;2023-11-21T13:23:06;2.83;;;1.43;;
11319;SDS011;5715;48.234;14.320;2023-11-21T13:25:57;2.20;;;1.30;;
11319;SDS011;5715;48.234;14.320;2023-11-21T13:28:53;3.13;;;1.40;;
11319;SDS011;5715;48.234;14.320;2023-11-21T13:31:41;4.37;;;1.83;;
11319;SDS011;5715;48.234;14.320;2023-11-21T13:34:29;1.53;;;1.40;;
11319;SDS011;5715;48.234;14.320;2023-11-21T13:37:20;1.50;;;1.20;;
11319;SDS011;5715;48.234;14.320;2023-11-21T13:40:09;1.90;;;1.33;;
11319;SDS011;5715;48.234;14.320;2023-11-21T13:43:01;1.60;;;1.50;;
11319;SDS011;5715;48.234;14.320;2023-11-21T13:45:54;2.17;;;1.43;;
11319;SDS011;5715;48.234;14.320;2023-11-21T13:48:55;0.97;;;0.97;;
11319;SDS011;5715;48.234;14.320;2023-11-21T13:51:43;2.60;;;1.80;;
11319;SDS011;5715;48.234;14.320;2023-11-21T13:54:32;3.00;;;2.03;;
11319;SDS011;5715;48.234;14.320;2023-11-21T13:57:20;2.63;;;1.67;;
11319;SDS011;5715;48.234;14.320;2023-11-21T14:00:08;3.03;;;1.23;;
11319;SDS011;5715;48.234;14.320;2023-11-21T14:03:16;2.00;;;1.20;;
11319;SDS011;5715;48.234;14.320;2023-11-21T14:06:09;1.40;;;1.20;;
11319;SDS011;5715;48.234;14.320;2023-11-21T14:09:01;1.30;;;1.20;;
11319;SDS011;5715;48.234;14.320;2023-11-21T14:11:54;2.33;;;1.50;;
11319;SDS011;5715;48.234;14.320;2023-11-21T14:14:44;1.70;;;1.53;;
11319;SDS011;5715;48.234;14.320;2023-11-21T14:17:32;3.83;;;1.53;;
11319;SDS011;5715;48.234;14.320;2023-11-21T14:20:21;1.87;;;1.37;;
11319;SDS011;5715;48.234;14.320;2023-11-21T14:23:09;2.10;;;1.30;;
11319;SDS011;5715;48.234;14.320;2023-11-21T14:25:57;1.57;;;1.30;;
11319;SDS011;5715;48.234;14.320;2023-11-21T14:28:45;5.90;;;1.60;;
11319;SDS011;5715;48.234;14.320;2023-11-21T14:31:34;3.87;;;1.87;;
11319;SDS011;5715;48.234;14.320;2023-11-21T14:34:23;2.50;;;1.73;;
11319;SDS011;5715;48.234;14.320;2023-11-21T14:37:13;3.83;;;1.47;;
11319;SDS011;5715;48.234;14.320;2023-11-21T14:40:00;2.33;;;1.50;;
11319;SDS011;5715;48.234;14.320;2023-11-21T14:42:49;2.60;;;1.90;;
11319;SDS011;5715;48.234;14.320;2023-11-21T14:45:39;1.80;;;1.47;;
11319;SDS011;5715;48.234;14.320;2023-11-21T14:48:27;1.10;;;1.10;;
11319;SDS011;5715;48.234;14.320;2023-11-21T14:51:29;4.73;;;1.53;;
11319;SDS011;5715;48.234;14.320;2023-11-21T14:54:17;1.67;;;1.57;;
11319;SDS011;5715;48.234;14.320;2023-11-21T14:57:14;1.83;;;1.70;;
11319;SDS011;5715;48.234;14.320;2023-11-21T15:00:06;1.60;;;1.50;;
11319;SDS011;5715;48.234;14.320;2023-11-21T15:03:15;2.40;;;1.80;;
11319;SDS011;5715;48.234;14.320;2023-11-21T15:06:18;1.63;;;1.50;;
11319;SDS011;5715;48.234;14.320;2023-11-21T15:09:06;6.40;;;2.03;;
11319;SDS011;5715;48.234;14.320;2023-11-21T15:11:54;1.77;;;1.67;;
11319;SDS011;5715;48.234;14.320;2023-11-21T15:14:50;1.73;;;1.60;;
11319;SDS011;5715;48.234;14.320;2023-11-21T15:17:43;1.80;;;1.70;;
11319;SDS011;5715;48.234;14.320;2023-11-21T15:20:32;3.73;;;2.10;;
11319;SDS011;5715;48.234;14.320;2023-11-21T15:23:20;1.50;;;1.40;;
11319;SDS011;5715;48.234;14.320;2023-11-21T15:26:08;5.17;;;1.90;;
11319;SDS011;5715;48.234;14.320;2023-11-21T15:28:56;2.23;;;2.03;;
11319;SDS011;5715;48.234;14.320;2023-11-21T15:31:44;1.73;;;1.63;;
11319;SDS011;5715;48.234;14.320;2023-11-21T15:34:35;1.97;;;1.73;;
11319;SDS011;5715;48.234;14.320;2023-11-21T15:37:24;4.73;;;1.83;;
11319;SDS011;5715;48.234;14.320;2023-11-21T15:40:14;3.63;;;2.00;;
11319;SDS011;5715;48.234;14.320;2023-11-21T15:43:03;2.30;;;2.10;;
11319;SDS011;5715;48.234;14.320;2023-11-21T15:45:51;5.77;;;2.43;;
11319;SDS011;5715;48.234;14.320;2023-11-21T15:48:39;4.40;;;2.43;;
11319;SDS011;5715;48.234;14.320;2023-11-21T15:51:30;2.93;;;2.37;;
11319;SDS011;5715;48.234;14.320;2023-11-21T15:54:25;9.53;;;2.17;;
11319;SDS011;5715;48.234;14.320;2023-11-21T15:57:14;1.57;;;1.47;;
11319;SDS011;5715;48.234;14.320;2023-11-21T16:00:04;5.93;;;2.47;;
11319;SDS011;5715;48.234;14.320;2023-11-21T16:02:58;2.20;;;1.93;;
11319;SDS011;5715;48.234;14.320;2023-11-21T16:05:46;3.13;;;2.40;;
11319;SDS011;5715;48.234;14.320;2023-11-21T16:08:35;2.40;;;2.20;;
11319;SDS011;5715;48.234;14.320;2023-11-21T16:11:23;3.83;;;2.40;;
11319;SDS011;5715;48.234;14.320;2023-11-21T16:14:11;4.67;;;2.90;;
11319;SDS011;5715;48.234;14.320;2023-11-21T16:16:59;5.07;;;2.83;;
11319;SDS011;5715;48.234;14.320;2023-11-21T16:19:46;4.13;;;2.53;;
11319;SDS011;5715;48.234;14.320;2023-11-21T16:22:34;2.40;;;2.10;;
11319;SDS011;5715;48.234;14.320;2023-11-21T16:25:22;11.40;;;2.87;;
11319;SDS011;5715;48.234;14.320;2023-11-21T16:28:09;2.17;;;1.90;;
11319;SDS011;5715;48.234;14.320;2023-11-21T16:30:57;3.57;;;2.17;;
11319;SDS011;5715;48.234;14.320;2023-11-21T16:33:45;1.70;;;1.60;;
11319;SDS011;5715;48.234;14.320;2023-11-21T16:36:32;1.50;;;1.40;;
11319;SDS011;5715;48.234;14.320;2023-11-21T16:39:20;1.70;;;1.60;;
11319;SDS011;5715;48.234;14.320;2023-11-21T16:42:08;2.50;;;2.20;;
11319;SDS011;5715;48.234;14.320;2023-11-21T16:44:56;2.40;;;1.67;;
11319;SDS011;5715;48.234;14.320;2023-11-21T16:47:44;2.10;;;1.90;;
11319;SDS011;5715;48.234;14.320;2023-11-21T16:50:32;3.90;;;2.20;;
11319;SDS011;5715;48.234;14.320;2023-11-21T16:53:19;2.60;;;2.40;;
11319;SDS011;5715;48.234;14.320;2023-11-21T16:56:07;4.50;;;3.00;;
11319;SDS011;5715;48.234;14.320;2023-11-21T16:58:55;2.67;;;2.20;;
11319;SDS011;5715;48.234;14.320;2023-11-21T17:01:42;3.37;;;2.30;;
11319;SDS011;5715;48.234;14.320;2023-11-21T17:04:32;2.73;;;2.33;;
11319;SDS011;5715;48.234;14.320;2023-11-21T17:07:21;3.77;;;3.40;;
11319;SDS011;5715;48.234;14.320;2023-11-21T17:10:09;7.63;;;3.90;;
11319;SDS011;5715;48.234;14.320;2023-11-21T17:12:59;3.17;;;2.53;;